Time;durP1;ratioP1;P1;durP2;ratioP2;P2;SDS_P1;SDS_P2;PMS_P1;PMS_P2;Temp;Humidity;BMP_temperature;BMP_pressure;BME280_temperature;BME280_humidity;BME280_pressure;Samples;Min_cycle;Max_cycle;Signal;HPM_P1;HPM_P2
2022/10/23 00:01:17;;;;;;;1.50;1.23;;;19.40;54.60;;;;;;5134756;28;20093;-11
2022/10/23 00:03:43;;;;;;;1.35;1.15;;;19.40;54.60;;;;;;5135068;28;20083;-11
2022/10/23 00:06:10;;;;;;;2.00;1.40;;;19.40;54.60;;;;;;5134729;28;20062;-11
2022/10/23 00:08:36;;;;;;;1.33;1.23;;;19.40;54.60;;;;;;5134644;28;20099;-11
2022/10/23 00:11:06;;;;;;;1.45;1.10;;;19.40;54.60;;;;;;5134623;27;20440;-11
2022/10/23 00:13:31;;;;;;;1.27;1.17;;;19.40;54.60;;;;;;5134968;28;20134;-11
2022/10/23 00:15:57;;;;;;;2.22;1.25;;;19.40;54.60;;;;;;5134443;28;20184;-11
2022/10/23 00:18:23;;;;;;;1.50;1.20;;;19.40;54.60;;;;;;5134300;28;20043;-11
2022/10/23 00:20:48;;;;;;;1.20;1.10;;;19.40;54.60;;;;;;5134310;28;20514;-11
2022/10/23 00:23:15;;;;;;;1.85;1.50;;;19.40;54.60;;;;;;5134321;28;20051;-11
2022/10/23 00:25:41;;;;;;;1.40;1.30;;;19.40;54.60;;;;;;5115862;28;20426;-11
2022/10/23 00:28:06;;;;;;;1.42;1.33;;;19.40;54.60;;;;;;5134408;28;20051;-11
2022/10/23 00:30:32;;;;;;;2.13;1.40;;;19.40;54.60;;;;;;5134258;28;20058;-11
2022/10/23 00:32:58;;;;;;;1.58;1.20;;;19.40;54.60;;;;;;5134748;28;20463;-11
2022/10/23 00:35:23;;;;;;;1.48;1.33;;;19.40;54.60;;;;;;5134113;28;20119;-11
2022/10/23 00:37:49;;;;;;;1.40;1.30;;;19.40;54.60;;;;;;5134747;28;20051;-11
2022/10/23 00:40:15;;;;;;;1.45;1.20;;;19.40;54.60;;;;;;5115458;28;20047;-11
2022/10/23 00:42:40;;;;;;;1.98;1.58;;;19.40;54.60;;;;;;5134599;28;20437;-11
2022/10/23 00:45:15;;;;;;;1.17;1.08;;;19.40;54.60;;;;;;5134009;28;20051;-11
2022/10/23 00:47:41;;;;;;;1.83;1.10;;;19.40;54.60;;;;;;5134213;28;20057;-11
2022/10/23 00:50:07;;;;;;;1.23;1.13;;;19.40;54.60;;;;;;5133932;28;20142;-11
2022/10/23 00:52:36;;;;;;;1.77;1.50;;;19.40;54.70;;;;;;5134320;28;20084;-11
2022/10/23 00:55:02;;;;;;;1.42;1.30;;;19.40;54.60;;;;;;5134295;28;20080;-11
2022/10/23 00:57:28;;;;;;;1.77;1.30;;;19.40;55.20;;;;;;5114627;28;20048;-11
2022/10/23 00:59:54;;;;;;;1.30;1.20;;;19.40;54.60;;;;;;5134183;28;20100;-11
2022/10/23 01:02:19;;;;;;;1.20;1.10;;;19.40;54.70;;;;;;5134122;28;20066;-11
2022/10/23 01:04:45;;;;;;;1.73;1.25;;;19.40;54.70;;;;;;5133720;28;20050;-11
2022/10/23 01:07:39;;;;;;;5.00;1.30;;;19.40;54.70;;;;;;5134126;28;20050;-11
2022/10/23 01:10:21;;;;;;;1.33;1.20;;;19.40;54.70;;;;;;5133133;28;20058;-11
2022/10/23 01:13:08;;;;;;;1.38;1.20;;;19.40;54.70;;;;;;5115135;28;20211;-11
2022/10/23 01:15:41;;;;;;;1.90;1.30;;;19.40;54.70;;;;;;5115672;28;20138;-11
2022/10/23 01:18:17;;;;;;;1.70;1.60;;;19.40;54.70;;;;;;5114884;28;20059;-11
2022/10/23 01:20:59;;;;;;;1.48;1.20;;;19.40;54.70;;;;;;5114331;28;20062;-11
2022/10/23 01:23:43;;;;;;;1.98;1.35;;;19.40;54.70;;;;;;5140796;27;20083;-11
2022/10/23 01:26:25;;;;;;;1.80;1.40;;;19.40;54.70;;;;;;5122386;27;20047;-11
2022/10/23 01:29:00;;;;;;;2.72;1.55;;;19.40;54.70;;;;;;5121518;27;20059;-11
2022/10/23 01:31:41;;;;;;;1.45;1.25;;;19.40;54.70;;;;;;5122385;27;20504;-11
2022/10/23 01:34:14;;;;;;;1.30;1.20;;;19.40;54.70;;;;;;5140547;27;20376;-11
2022/10/23 01:36:45;;;;;;;1.27;1.08;;;19.40;54.70;;;;;;5121813;27;20483;-11
2022/10/23 01:39:17;;;;;;;1.38;1.27;;;19.40;54.70;;;;;;5121671;27;20096;-11
2022/10/23 01:41:49;;;;;;;1.20;1.10;;;19.30;54.70;;;;;;5122037;27;20055;-11
2022/10/23 01:44:46;;;;;;;1.70;1.33;;;19.40;54.70;;;;;;5121618;27;20055;-11
2022/10/23 01:47:14;;;;;;;0.97;0.97;;;19.40;54.70;;;;;;5140032;27;20050;-11
2022/10/23 01:49:52;;;;;;;2.30;1.50;;;19.40;54.70;;;;;;5121915;27;20510;-11
2022/10/23 01:52:19;;;;;;;1.50;1.15;;;19.30;54.60;;;;;;5139968;27;20047;-11
2022/10/23 01:54:50;;;;;;;1.30;1.20;;;19.30;54.60;;;;;;5121555;27;20054;-11
2022/10/23 01:57:18;;;;;;;1.90;1.38;;;19.30;54.70;;;;;;5140113;27;20095;-11
2022/10/23 01:59:49;;;;;;;1.50;1.30;;;19.40;54.70;;;;;;5122067;27;20054;-11
2022/10/23 02:02:16;;;;;;;;;;;19.30;54.70;;;;;;5122233;27;20051;-11
2022/10/23 02:04:59;;;;;;;1.45;1.33;;;19.30;54.70;;;;;;5121383;27;19915;-11
2022/10/23 02:07:25;;;;;;;1.42;1.30;;;19.40;54.70;;;;;;5120440;27;20113;-11
2022/10/23 02:09:51;;;;;;;1.30;1.20;;;19.30;54.70;;;;;;5139516;27;20051;-11
2022/10/23 02:12:32;;;;;;;1.30;1.20;;;19.40;54.70;;;;;;5139809;27;20375;-11
2022/10/23 02:15:16;;;;;;;1.45;1.20;;;19.30;54.80;;;;;;5120493;27;20043;-11
2022/10/23 02:17:54;;;;;;;1.45;1.25;;;19.30;54.70;;;;;;5119675;27;20094;-11
2022/10/23 02:20:42;;;;;;;1.42;1.33;;;19.40;54.70;;;;;;5139585;27;20086;-11
2022/10/23 02:23:32;;;;;;;1.20;1.10;;;19.30;54.70;;;;;;5139971;27;20043;-11
2022/10/23 02:26:16;;;;;;;1.75;1.50;;;19.30;54.60;;;;;;5121152;27;20046;-11
2022/10/23 02:28:52;;;;;;;1.58;1.35;;;19.40;54.70;;;;;;5139384;27;20047;-11
2022/10/23 02:31:20;;;;;;;;;;;19.30;54.70;;;;;;5120865;27;20138;-10
2022/10/23 02:33:46;;;;;;;1.20;1.10;;;19.30;54.70;;;;;;5136192;27;20015;-11
2022/10/23 02:36:14;;;;;;;1.30;1.20;;;19.30;54.70;;;;;;5117778;28;20080;-11
2022/10/23 02:38:42;;;;;;;1.63;1.20;;;19.30;54.60;;;;;;5136026;28;20137;-11
2022/10/23 02:41:24;;;;;;;1.48;1.38;;;19.30;54.70;;;;;;5136311;28;20538;-11
2022/10/23 02:44:06;;;;;;;1.20;1.08;;;19.30;54.70;;;;;;5136248;28;20546;-11
2022/10/23 02:46:48;;;;;;;1.55;1.20;;;19.30;54.70;;;;;;5136300;28;20054;-11
2022/10/23 02:49:18;;;;;;;1.30;1.20;;;19.30;54.70;;;;;;5117352;28;20058;-11
2022/10/23 02:52:10;;;;;;;1.75;1.20;;;19.30;54.70;;;;;;5117740;28;20058;-11
2022/10/23 02:54:58;;;;;;;1.30;1.20;;;19.30;54.70;;;;;;5116566;28;20185;-11
2022/10/23 02:57:36;;;;;;;1.27;1.17;;;19.30;54.70;;;;;;5135518;28;20139;-11
2022/10/23 03:00:10;;;;;;;1.40;1.30;;;19.30;54.70;;;;;;5117041;28;20054;-11
2022/10/23 03:02:54;;;;;;;1.27;1.17;;;19.30;54.70;;;;;;5115479;28;20090;-11
2022/10/23 03:05:28;;;;;;;1.35;1.25;;;19.30;54.70;;;;;;5117471;28;20134;-11
2022/10/23 03:07:55;;;;;;;2.47;1.30;;;19.30;54.70;;;;;;5115733;28;20055;-11
2022/10/23 03:10:22;;;;;;;1.77;1.30;;;19.30;54.70;;;;;;5116960;28;20051;-11
2022/10/23 03:12:49;;;;;;;1.33;1.23;;;19.30;54.80;;;;;;5135555;28;20521;-11
2022/10/23 03:15:16;;;;;;;1.05;0.98;;;19.30;54.70;;;;;;5116132;28;20047;-11
2022/10/23 03:17:42;;;;;;;1.33;1.05;;;19.30;54.70;;;;;;5115260;28;20051;-11
2022/10/23 03:20:08;;;;;;;1.33;1.23;;;19.30;54.70;;;;;;5116578;28;20372;-11
2022/10/23 03:22:34;;;;;;;1.20;1.10;;;19.30;54.70;;;;;;5116035;28;20058;-11
2022/10/23 03:25:00;;;;;;;1.38;1.20;;;19.30;54.70;;;;;;5115017;28;20048;-11
2022/10/23 03:27:27;;;;;;;1.17;1.08;;;19.30;54.70;;;;;;5116252;28;20047;-12
2022/10/23 03:29:53;;;;;;;1.60;1.30;;;19.30;54.70;;;;;;5115446;28;20058;-11
2022/10/23 03:32:19;;;;;;;1.38;1.10;;;19.30;54.70;;;;;;5117264;28;20108;-11
2022/10/23 03:34:44;;;;;;;1.35;1.25;;;19.30;54.70;;;;;;5135150;28;20410;-11
2022/10/23 03:37:10;;;;;;;1.70;1.20;;;19.30;54.70;;;;;;5115883;28;20100;-11
2022/10/23 03:39:36;;;;;;;1.30;1.20;;;19.30;54.70;;;;;;5135690;28;20134;-11
2022/10/23 03:42:01;;;;;;;1.30;1.20;;;19.30;54.70;;;;;;5135121;28;20047;-11
2022/10/23 03:44:29;;;;;;;1.55;1.05;;;19.30;54.70;;;;;;5116152;28;20097;-11
2022/10/23 03:46:56;;;;;;;1.55;1.00;;;19.30;54.70;;;;;;5117010;28;20387;-11
2022/10/23 03:49:22;;;;;;;1.42;1.20;;;19.30;54.70;;;;;;5135106;28;20071;-11
2022/10/23 03:51:51;;;;;;;1.95;1.23;;;19.30;54.70;;;;;;5116422;28;20514;-11
2022/10/23 03:54:25;;;;;;;1.38;1.23;;;19.30;54.70;;;;;;5116943;28;20383;-11
2022/10/23 03:56:51;;;;;;;1.35;1.25;;;19.30;54.70;;;;;;5134586;28;20047;-11
2022/10/23 03:59:19;;;;;;;1.92;1.52;;;19.30;54.70;;;;;;5116939;28;20506;-11
2022/10/23 04:01:45;;;;;;;1.40;1.30;;;19.30;54.70;;;;;;5116342;28;20138;-11
2022/10/23 04:04:11;;;;;;;1.27;1.17;;;19.30;54.70;;;;;;5134988;28;20047;-11
2022/10/23 04:06:40;;;;;;;1.80;1.30;;;19.30;54.70;;;;;;5116166;28;20047;-12
2022/10/23 04:09:06;;;;;;;1.40;1.30;;;19.30;54.70;;;;;;5115688;28;20486;-11
2022/10/23 04:11:32;;;;;;;1.58;1.10;;;19.30;54.70;;;;;;5116455;28;20104;-11
2022/10/23 04:13:57;;;;;;;1.40;1.30;;;19.30;54.70;;;;;;5116120;28;20428;-11
2022/10/23 04:16:24;;;;;;;1.85;1.20;;;19.30;54.80;;;;;;5115905;28;20043;-11
2022/10/23 04:18:49;;;;;;;1.30;1.20;;;19.30;54.70;;;;;;5134798;28;20051;-11
2022/10/23 04:21:15;;;;;;;1.20;1.10;;;19.30;55.30;;;;;;5115988;28;20062;-11
2022/10/23 04:23:41;;;;;;;1.77;1.48;;;19.30;54.70;;;;;;5115908;28;20051;-11
2022/10/23 04:26:12;;;;;;;1.90;1.60;;;19.30;54.70;;;;;;5114486;28;20054;-11
2022/10/23 04:28:38;;;;;;;1.50;1.20;;;19.30;54.70;;;;;;5134393;28;20051;-11
2022/10/23 04:31:03;;;;;;;1.52;1.23;;;19.30;54.70;;;;;;5115782;28;20051;-11
2022/10/23 04:33:29;;;;;;;1.17;1.00;;;19.20;54.60;;;;;;5134240;28;20405;-11
2022/10/23 04:35:55;;;;;;;1.25;1.00;;;19.30;54.70;;;;;;5115669;28;20038;-11
2022/10/23 04:38:20;;;;;;;1.67;1.00;;;19.30;54.70;;;;;;5114942;28;20088;-11
2022/10/23 04:40:46;;;;;;;1.33;1.13;;;19.20;54.70;;;;;;5116049;28;20407;-11
2022/10/23 04:43:16;;;;;;;2.60;1.35;;;19.30;54.70;;;;;;5115721;28;20055;-11
2022/10/23 04:45:42;;;;;;;1.30;1.20;;;19.20;54.70;;;;;;5113515;28;20051;-11
2022/10/23 04:48:08;;;;;;;1.42;1.30;;;19.20;54.70;;;;;;5115506;28;20065;-11
2022/10/23 04:50:56;;;;;;;1.38;1.27;;;19.20;54.70;;;;;;5115537;28;20058;-11
2022/10/23 04:53:31;;;;;;;1.30;1.20;;;19.20;54.70;;;;;;5115673;28;20399;-11
2022/10/23 04:56:14;;;;;;;1.20;1.10;;;19.20;54.70;;;;;;5114575;28;20051;-11
2022/10/23 04:58:55;;;;;;;1.60;1.13;;;19.20;54.70;;;;;;5115760;28;20059;-11
2022/10/23 05:01:22;;;;;;;1.45;1.10;;;19.20;54.60;;;;;;5115312;28;20156;-11
2022/10/23 05:03:48;;;;;;;1.30;1.15;;;19.20;54.60;;;;;;5115660;28;20133;-11
2022/10/23 05:06:14;;;;;;;1.27;1.10;;;19.20;54.70;;;;;;5115063;28;20407;-11
2022/10/23 05:08:58;;;;;;;1.00;1.00;;;19.20;54.70;;;;;;5134387;28;20047;-11
2022/10/23 05:11:38;;;;;;;1.55;1.45;;;19.20;54.60;;;;;;5115629;28;20196;-11
2022/10/23 05:14:06;;;;;;;1.13;1.02;;;19.20;54.70;;;;;;5115545;28;20047;-11
2022/10/23 05:16:43;;;;;;;1.17;1.08;;;19.20;54.70;;;;;;5133579;28;20398;-11
2022/10/23 05:19:14;;;;;;;1.20;1.10;;;19.20;54.70;;;;;;5114206;28;20056;-11
2022/10/23 05:21:40;;;;;;;1.70;1.30;;;19.20;54.70;;;;;;5115067;28;20089;-11
2022/10/23 05:24:06;;;;;;;1.23;1.13;;;19.20;54.70;;;;;;5115641;28;20059;-11
2022/10/23 05:26:32;;;;;;;1.67;1.10;;;19.20;54.70;;;;;;5115129;28;20043;-11
2022/10/23 05:29:03;;;;;;;1.20;1.10;;;19.20;54.70;;;;;;5113785;28;20467;-11
2022/10/23 05:31:29;;;;;;;1.58;1.13;;;19.20;54.70;;;;;;5114985;28;20082;-11
2022/10/23 05:34:02;;;;;;;1.20;1.10;;;19.20;54.70;;;;;;5115496;28;20096;-11
2022/10/23 05:36:28;;;;;;;1.23;1.13;;;19.20;54.70;;;;;;5114799;28;20697;-11
2022/10/23 05:38:56;;;;;;;1.40;1.25;;;19.20;54.70;;;;;;5115180;28;20051;-11
2022/10/23 05:41:22;;;;;;;1.20;1.10;;;19.20;54.70;;;;;;5114813;28;20490;-11
2022/10/23 05:43:47;;;;;;;1.55;1.05;;;19.20;54.60;;;;;;5114816;28;20058;-11
2022/10/23 05:46:43;;;;;;;1.65;1.20;;;19.20;54.70;;;;;;5132827;28;20051;-11
2022/10/23 05:49:25;;;;;;;1.20;1.10;;;19.20;54.70;;;;;;5115107;28;20142;-11
2022/10/23 05:52:11;;;;;;;1.48;1.08;;;19.20;54.70;;;;;;5118246;28;20047;-11
2022/10/23 05:54:52;;;;;;;1.48;1.10;;;19.20;54.70;;;;;;5115393;28;20386;-11
2022/10/23 05:57:35;;;;;;;1.30;1.20;;;19.20;54.60;;;;;;5114592;28;20482;-11
2022/10/23 06:00:05;;;;;;;1.77;1.30;;;19.20;54.70;;;;;;5114223;28;20055;-11
2022/10/23 06:02:40;;;;;;;1.38;1.27;;;19.20;54.70;;;;;;5132942;28;20142;-11
2022/10/23 06:05:21;;;;;;;1.40;1.10;;;19.20;54.70;;;;;;5114517;28;20063;-11
2022/10/23 06:08:15;;;;;;;1.15;1.00;;;19.20;54.70;;;;;;5117063;28;20074;-11
2022/10/23 06:10:41;;;;;;;1.25;1.15;;;19.20;54.70;;;;;;5118657;28;20054;-11
2022/10/23 06:13:09;;;;;;;1.10;1.00;;;19.20;54.70;;;;;;5118262;28;20142;-11
2022/10/23 06:15:35;;;;;;;1.65;1.00;;;19.20;54.60;;;;;;5117099;28;20050;-11
2022/10/23 06:18:07;;;;;;;1.15;1.05;;;19.20;54.60;;;;;;5118319;28;20058;-11
2022/10/23 06:20:37;;;;;;;1.48;1.35;;;19.20;54.60;;;;;;5101162;28;20047;-11
2022/10/23 06:23:08;;;;;;;1.08;0.90;;;19.20;54.60;;;;;;5117894;28;20134;-11
2022/10/23 06:25:55;;;;;;;1.30;1.10;;;19.20;54.60;;;;;;5135156;28;20406;-11
2022/10/23 06:28:26;;;;;;;1.85;1.15;;;19.20;54.60;;;;;;5118213;28;20055;-12
2022/10/23 06:30:52;;;;;;;1.00;1.00;;;19.20;54.60;;;;;;5117101;28;20487;-11
2022/10/23 06:33:18;;;;;;;1.10;1.00;;;19.20;54.60;;;;;;5117737;28;20050;-11
2022/10/23 06:35:44;;;;;;;1.38;1.17;;;19.20;54.60;;;;;;5117730;28;20509;-11
2022/10/23 06:38:12;;;;;;;1.48;1.25;;;19.20;54.60;;;;;;5117596;28;20047;-11
2022/10/23 06:40:52;;;;;;;1.20;1.10;;;19.20;54.60;;;;;;5117709;28;20057;-11
2022/10/23 06:43:22;;;;;;;1.20;1.10;;;19.20;54.60;;;;;;5116773;28;20086;-11
2022/10/23 06:46:18;;;;;;;1.55;1.02;;;19.20;54.60;;;;;;5122082;28;20047;-11
2022/10/23 06:49:09;;;;;;;1.35;1.23;;;19.20;55.10;;;;;;5132497;28;20410;-11
2022/10/23 06:51:43;;;;;;;2.30;1.25;;;19.20;54.50;;;;;;5117753;28;20107;-11
2022/10/23 06:54:11;;;;;;;1.17;1.08;;;19.20;54.50;;;;;;5117355;28;20415;-11
2022/10/23 06:56:49;;;;;;;1.05;0.98;;;19.20;54.50;;;;;;5135873;28;20051;-11
2022/10/23 06:59:18;;;;;;;1.38;1.02;;;19.20;54.50;;;;;;5117210;28;20104;-11
2022/10/23 07:01:45;;;;;;;1.48;1.20;;;19.20;54.50;;;;;;5117226;28;20147;-11
2022/10/23 07:04:13;;;;;;;1.17;1.08;;;19.20;54.50;;;;;;5117224;28;20567;-11
2022/10/23 07:06:40;;;;;;;1.40;1.08;;;19.20;54.50;;;;;;5117196;28;20055;-11
2022/10/23 07:09:07;;;;;;;1.30;1.10;;;19.20;54.50;;;;;;5115371;28;20060;-11
2022/10/23 07:11:51;;;;;;;1.60;1.20;;;19.20;54.50;;;;;;5135672;28;20043;-11
2022/10/23 07:14:18;;;;;;;1.20;1.10;;;19.30;54.50;;;;;;5117347;28;20100;-11
2022/10/23 07:16:44;;;;;;;1.05;0.90;;;19.30;54.40;;;;;;5116964;28;20059;-11
2022/10/23 07:19:10;;;;;;;1.45;1.17;;;19.30;54.30;;;;;;5115078;28;20047;-11
2022/10/23 07:21:52;;;;;;;1.13;1.02;;;19.40;54.20;;;;;;5117366;28;20051;-11
2022/10/23 07:24:40;;;;;;;1.08;1.02;;;19.40;54.10;;;;;;5087223;28;20049;-11
2022/10/23 07:27:17;;;;;;;1.00;0.90;;;19.40;54.00;;;;;;5117292;28;20055;-11
2022/10/23 07:29:43;;;;;;;1.05;1.05;;;19.40;54.00;;;;;;5115874;28;20105;-11
2022/10/23 07:32:09;;;;;;;1.08;0.80;;;19.50;53.90;;;;;;5116845;28;20047;-11
2022/10/23 07:35:09;;;;;;;1.45;1.10;;;19.50;53.90;;;;;;5089404;28;20131;-11
2022/10/23 07:37:37;;;;;;;1.50;1.10;;;19.50;53.80;;;;;;5114718;28;20052;-11
2022/10/23 07:40:05;;;;;;;1.48;1.25;;;19.50;53.80;;;;;;5115928;28;20105;-11
2022/10/23 07:42:34;;;;;;;2.13;1.08;;;19.50;53.80;;;;;;5116201;28;20387;-11
2022/10/23 07:45:03;;;;;;;1.20;1.10;;;19.60;53.70;;;;;;5115799;28;20043;-11
2022/10/23 07:47:29;;;;;;;1.10;1.00;;;19.60;53.60;;;;;;5115068;28;20044;-12
2022/10/23 07:49:54;;;;;;;1.40;1.15;;;19.70;53.60;;;;;;5117130;28;20054;-11
2022/10/23 07:52:20;;;;;;;1.40;1.15;;;19.70;53.50;;;;;;5134888;28;20095;-11
2022/10/23 07:55:07;;;;;;;1.00;1.00;;;19.60;53.40;;;;;;5116447;28;20479;-11
2022/10/23 07:57:36;;;;;;;0.90;0.90;;;19.70;53.50;;;;;;5114707;28;20059;-11
2022/10/23 08:00:31;;;;;;;2.30;1.30;;;19.70;53.40;;;;;;5116589;28;20065;-11
2022/10/23 08:03:11;;;;;;;1.30;1.00;;;19.70;53.40;;;;;;5116676;28;20104;-11
2022/10/23 08:05:37;;;;;;;2.15;1.00;;;19.70;53.40;;;;;;5115446;28;20146;-11
2022/10/23 08:08:03;;;;;;;1.23;1.10;;;19.70;53.40;;;;;;5114357;28;20083;-11
2022/10/23 08:10:29;;;;;;;1.35;1.10;;;19.70;53.50;;;;;;5115890;28;20047;-11
2022/10/23 08:12:57;;;;;;;1.45;1.30;;;19.70;53.50;;;;;;5116431;28;20047;-11
2022/10/23 08:15:41;;;;;;;1.35;1.10;;;19.70;53.60;;;;;;5115982;28;20196;-11
2022/10/23 08:18:18;;;;;;;1.35;1.17;;;19.70;53.60;;;;;;5116047;28;20395;-11
2022/10/23 08:20:46;;;;;;;1.08;1.00;;;19.60;53.50;;;;;;5134825;28;20166;-11
2022/10/23 08:23:15;;;;;;;2.15;1.25;;;19.60;53.60;;;;;;5116043;28;20521;-11
2022/10/23 08:25:41;;;;;;;1.15;1.05;;;19.60;53.60;;;;;;5115923;28;20051;-11
2022/10/23 08:28:08;;;;;;;1.23;1.13;;;19.60;53.60;;;;;;5114244;28;20051;-11
2022/10/23 08:30:42;;;;;;;1.30;1.17;;;19.60;53.60;;;;;;5115538;28;20099;-11
2022/10/23 08:33:08;;;;;;;1.20;1.08;;;19.60;53.60;;;;;;5115662;28;20047;-11
2022/10/23 08:35:37;;;;;;;1.13;1.02;;;19.60;53.50;;;;;;5134388;28;20138;-11
2022/10/23 08:38:04;;;;;;;1.27;1.15;;;19.60;53.50;;;;;;5115559;28;20506;-11
2022/10/23 08:40:34;;;;;;;1.08;0.90;;;19.70;53.60;;;;;;5115644;28;20055;-11
2022/10/23 08:43:43;;;;;;;1.35;1.10;;;19.60;53.50;;;;;;5129996;28;20054;-11
2022/10/23 08:46:33;;;;;;;1.20;1.10;;;19.60;53.60;;;;;;5133841;28;20065;-11
2022/10/23 08:49:49;;;;;;;1.08;0.95;;;19.60;53.60;;;;;;5133824;28;20510;-11
2022/10/23 08:52:26;;;;;;;1.15;1.05;;;19.60;53.60;;;;;;5115814;28;20047;-11
2022/10/23 08:54:59;;;;;;;1.30;1.20;;;19.60;53.60;;;;;;5133991;28;20055;-11
2022/10/23 08:57:33;;;;;;;1.25;1.15;;;19.60;53.60;;;;;;5133960;28;20047;-11
2022/10/23 09:00:07;;;;;;;1.00;1.00;;;19.60;53.60;;;;;;5134177;28;20086;-11
2022/10/23 09:02:45;;;;;;;1.13;1.02;;;19.60;53.60;;;;;;5133637;28;20051;-11
2022/10/23 09:05:33;;;;;;;0.98;0.98;;;19.70;53.60;;;;;;5133992;28;20051;-11
2022/10/23 09:08:06;;;;;;;1.10;1.00;;;19.60;53.60;;;;;;5133264;28;20138;-11
2022/10/23 09:10:45;;;;;;;1.45;1.30;;;19.60;53.60;;;;;;5133813;28;20046;-11
2022/10/23 09:13:44;;;;;;;1.42;1.00;;;19.60;53.60;;;;;;5133692;28;20047;-11
2022/10/23 09:16:36;;;;;;;1.25;1.15;;;19.60;53.60;;;;;;5133288;28;20054;-11
2022/10/23 09:19:11;;;;;;;1.30;1.20;;;19.60;53.60;;;;;;5101705;28;20502;-11
2022/10/23 09:21:36;;;;;;;1.20;1.10;;;19.60;53.60;;;;;;5134109;28;20097;-11
2022/10/23 09:24:02;;;;;;;1.10;1.00;;;19.60;53.50;;;;;;5133902;28;20079;-11
2022/10/23 09:26:28;;;;;;;1.30;1.20;;;19.60;53.60;;;;;;5133603;28;20085;-11
2022/10/23 09:29:06;;;;;;;2.60;1.42;;;19.60;53.60;;;;;;5134127;28;20051;-11
2022/10/23 09:31:31;;;;;;;1.20;1.10;;;19.60;53.60;;;;;;5133339;28;20437;-11
2022/10/23 09:34:00;;;;;;;1.30;1.20;;;19.60;53.50;;;;;;5133780;28;20055;-11
2022/10/23 09:36:28;;;;;;;1.30;1.02;;;19.60;53.60;;;;;;5114874;28;20448;-11
2022/10/23 09:38:58;;;;;;;1.30;1.20;;;19.60;53.50;;;;;;5133312;28;20043;-11
2022/10/23 09:41:29;;;;;;;1.02;1.02;;;19.60;53.50;;;;;;5133923;28;20471;-11
2022/10/23 09:44:14;;;;;;;1.20;1.10;;;19.70;53.60;;;;;;5136767;27;20054;-11
2022/10/23 09:46:43;;;;;;;1.48;1.20;;;19.70;53.50;;;;;;5117923;28;20056;-11
2022/10/23 09:49:33;;;;;;;1.42;1.33;;;19.70;53.50;;;;;;5137020;28;20051;-11
2022/10/23 09:52:01;;;;;;;1.25;1.00;;;19.60;54.00;;;;;;5137177;28;20049;-11
2022/10/23 09:54:31;;;;;;;1.30;1.20;;;19.70;53.50;;;;;;5137123;28;20138;-11
2022/10/23 09:57:02;;;;;;;1.25;1.10;;;19.70;53.60;;;;;;5136426;28;20086;-11
2022/10/23 09:59:29;;;;;;;;;;;19.60;53.50;;;;;;5137420;28;20059;-11
2022/10/23 10:02:02;;;;;;;1.10;1.00;;;19.60;53.50;;;;;;5136625;28;20001;-11
2022/10/23 10:04:48;;;;;;;1.40;1.10;;;19.70;53.50;;;;;;5125506;28;20095;-11
2022/10/23 10:07:22;;;;;;;1.25;1.15;;;19.70;53.50;;;;;;5136826;28;20058;-11
2022/10/23 10:09:48;;;;;;;1.48;1.08;;;19.70;53.50;;;;;;5137064;28;20055;-11
2022/10/23 10:12:34;;;;;;;1.48;1.10;;;19.70;53.40;;;;;;5136645;28;20098;-11
2022/10/23 10:15:09;;;;;;;1.20;1.10;;;19.70;53.50;;;;;;5136174;28;20112;-11
2022/10/23 10:18:13;;;;;;;1.27;1.10;;;19.60;53.40;;;;;;5136335;28;20062;-11
2022/10/23 10:21:01;;;;;;;1.40;1.17;;;19.70;53.50;;;;;;5136260;28;20069;-11
2022/10/23 10:23:39;;;;;;;1.02;0.93;;;19.70;53.50;;;;;;5136361;28;20051;-11
2022/10/23 10:26:19;;;;;;;1.67;1.10;;;19.70;53.50;;;;;;5117903;28;20513;-11
2022/10/23 10:29:06;;;;;;;0.90;0.90;;;19.60;53.40;;;;;;5136447;28;20047;-11
2022/10/23 10:31:42;;;;;;;1.20;1.10;;;19.70;53.50;;;;;;5136290;28;20090;-11
2022/10/23 10:34:39;;;;;;;1.00;0.95;;;19.70;53.40;;;;;;5136377;28;20055;-11
2022/10/23 10:37:20;;;;;;;0.90;0.90;;;19.70;53.40;;;;;;5136100;28;20050;-11
2022/10/23 10:40:01;;;;;;;1.67;1.03;;;19.60;53.40;;;;;;5136139;28;20600;-11
2022/10/23 10:42:54;;;;;;;1.40;1.30;;;19.70;53.40;;;;;;5135942;28;20551;-11
2022/10/23 10:45:42;;;;;;;1.35;1.25;;;19.70;53.90;;;;;;5136060;28;20059;-11
2022/10/23 10:48:28;;;;;;;1.25;1.10;;;19.70;53.40;;;;;;5136093;28;20054;-11
2022/10/23 10:51:32;;;;;;;0.98;0.88;;;19.70;53.40;;;;;;5136583;28;20073;-11
2022/10/23 10:54:13;;;;;;;1.23;1.10;;;19.70;53.40;;;;;;5134922;27;20077;-11
2022/10/23 10:56:41;;;;;;;1.08;1.00;;;19.70;53.40;;;;;;5135811;28;20066;-11
2022/10/23 10:59:25;;;;;;;1.30;1.20;;;19.70;53.40;;;;;;5135962;28;20402;-11
2022/10/23 11:02:02;;;;;;;1.38;1.15;;;19.70;53.30;;;;;;5136119;28;20483;-11
2022/10/23 11:04:51;;;;;;;1.00;1.00;;;19.70;53.30;;;;;;5117968;28;20055;-10
2022/10/23 11:07:22;;;;;;;1.15;1.10;;;19.70;53.30;;;;;;5135201;28;20436;-11
2022/10/23 11:09:49;;;;;;;1.20;1.10;;;19.70;53.30;;;;;;5135625;28;20059;-11
2022/10/23 11:12:22;;;;;;;1.15;1.05;;;19.70;53.30;;;;;;5135874;28;20100;-11
2022/10/23 11:14:49;;;;;;;0.90;0.90;;;19.70;53.30;;;;;;5135253;28;20053;-11
2022/10/23 11:17:19;;;;;;;1.25;1.05;;;19.70;53.30;;;;;;5116709;28;20138;-11
2022/10/23 11:19:58;;;;;;;1.38;1.13;;;19.70;53.30;;;;;;5135304;28;20039;-11
2022/10/23 11:22:44;;;;;;;1.33;1.20;;;19.70;53.30;;;;;;5135500;28;20445;-11
2022/10/23 11:25:46;;;;;;;1.45;1.20;;;19.70;53.30;;;;;;5135278;28;20486;-11
2022/10/23 11:28:14;;;;;;;;;;;19.70;53.30;;;;;;5135698;28;20390;-11
2022/10/23 11:31:06;;;;;;;0.93;0.93;;;19.70;53.30;;;;;;5117413;28;20005;-11
2022/10/23 11:33:56;;;;;;;0.82;0.82;;;19.70;53.30;;;;;;5135666;28;20055;-11
2022/10/23 11:37:00;;;;;;;1.30;1.20;;;19.70;53.30;;;;;;5135245;28;20379;-11
2022/10/23 11:39:30;;;;;;;1.20;1.10;;;19.70;53.30;;;;;;5135100;28;20051;-11
2022/10/23 11:42:03;;;;;;;1.50;1.20;;;19.70;53.30;;;;;;5117258;28;20054;-11
2022/10/23 11:44:45;;;;;;;1.17;1.08;;;19.70;53.30;;;;;;5135129;28;20431;-11
2022/10/23 11:47:28;;;;;;;1.08;0.98;;;19.70;53.30;;;;;;5115508;28;20434;-11
2022/10/23 11:50:06;;;;;;;1.05;1.00;;;19.70;53.30;;;;;;5134993;28;20055;-11
2022/10/23 11:52:52;;;;;;;1.20;1.10;;;19.70;53.20;;;;;;5135077;28;20047;-11
2022/10/23 11:55:23;;;;;;;0.90;0.90;;;19.70;53.30;;;;;;5134899;28;20553;-11
2022/10/23 11:58:03;;;;;;;;;;;19.80;53.30;;;;;;5135497;28;20047;-11
2022/10/23 12:00:33;;;;;;;1.00;0.98;;;19.70;53.20;;;;;;5134875;28;19922;-11
2022/10/23 12:03:00;;;;;;;0.90;0.90;;;19.80;53.30;;;;;;5135113;28;20061;-11
2022/10/23 12:05:33;;;;;;;1.05;1.00;;;19.70;53.20;;;;;;5134555;27;20039;-11
2022/10/23 12:08:02;;;;;;;1.23;1.05;;;19.70;53.30;;;;;;5134903;28;20058;-11
2022/10/23 12:10:33;;;;;;;1.23;1.13;;;19.70;53.30;;;;;;5135163;28;20043;-11
2022/10/23 12:13:05;;;;;;;1.10;1.10;;;19.70;53.30;;;;;;5134692;28;20050;-11
2022/10/23 12:15:33;;;;;;;1.67;1.02;;;19.70;53.20;;;;;;5134542;28;20039;-11
2022/10/23 12:18:14;;;;;;;1.02;1.02;;;19.80;53.30;;;;;;5134512;28;20482;-11
2022/10/23 12:20:56;;;;;;;0.93;0.93;;;19.70;53.20;;;;;;5134589;28;20054;-11
2022/10/23 12:23:41;;;;;;;1.15;1.05;;;19.70;53.20;;;;;;5134824;28;20099;-11
2022/10/23 12:26:25;;;;;;;1.00;1.00;;;19.80;53.30;;;;;;5134459;28;20061;-11
2022/10/23 12:29:08;;;;;;;1.20;1.10;;;19.80;53.30;;;;;;5115726;28;20384;-11
2022/10/23 12:31:58;;;;;;;1.65;1.40;;;19.70;53.30;;;;;;5134645;28;20137;-11
2022/10/23 12:34:33;;;;;;;1.10;1.10;;;19.70;53.30;;;;;;5134276;28;20411;-11
2022/10/23 12:37:19;;;;;;;1.17;1.05;;;19.70;53.30;;;;;;5134308;28;20091;-11
2022/10/23 12:39:51;;;;;;;1.42;1.30;;;19.70;53.30;;;;;;5134225;28;20055;-11
2022/10/23 12:42:23;;;;;;;1.20;1.10;;;19.70;53.30;;;;;;5134168;28;20055;-11
2022/10/23 12:45:15;;;;;;;1.55;0.98;;;19.70;53.30;;;;;;5134094;28;20395;-11
2022/10/23 12:47:44;;;;;;;2.03;1.38;;;19.70;53.30;;;;;;5134170;28;20051;-11
2022/10/23 12:50:28;;;;;;;1.13;1.02;;;19.70;53.30;;;;;;5133948;28;20043;-11
2022/10/23 12:52:56;;;;;;;1.35;1.10;;;19.70;53.30;;;;;;5134004;28;20054;-11
2022/10/23 12:55:25;;;;;;;2.10;1.20;;;19.70;53.40;;;;;;5134013;28;20047;-11
2022/10/23 12:57:53;;;;;;;1.23;1.10;;;19.70;53.40;;;;;;5134005;28;20552;-11
2022/10/23 13:00:22;;;;;;;0.93;0.93;;;19.70;53.40;;;;;;5133901;28;20499;-11
2022/10/23 13:03:02;;;;;;;0.90;0.90;;;19.70;53.40;;;;;;5133518;28;20183;-11
2022/10/23 13:05:29;;;;;;;1.05;0.88;;;19.70;53.40;;;;;;5133369;28;20435;-11
2022/10/23 13:07:58;;;;;;;1.20;1.10;;;19.70;53.40;;;;;;5133869;28;20129;-11
2022/10/23 13:10:36;;;;;;;1.20;1.10;;;19.60;53.30;;;;;;5115310;28;20058;-11
2022/10/23 13:13:06;;;;;;;2.13;1.13;;;19.60;53.90;;;;;;5115126;28;20055;-11
2022/10/23 13:15:40;;;;;;;1.13;1.02;;;19.60;53.30;;;;;;5133563;28;20146;-11
2022/10/23 13:18:08;;;;;;;0.98;0.98;;;19.70;53.40;;;;;;5132943;27;20042;-11
2022/10/23 13:20:37;;;;;;;1.23;1.13;;;19.70;53.40;;;;;;5133927;28;20379;-11
2022/10/23 13:23:22;;;;;;;1.17;1.08;;;19.60;53.40;;;;;;5133632;28;20043;-11